Flight Track Log - Related Links

Times and Time Zones

All times are in EDT time to prevent confusion due to time zone crossing. See the DAL6246 flight status page for this flight to view local times or setup timezone preferences in your user account.


Time Position Orientation Groundspeed Altitude Reporting Facility
EDT Latitude Longitude Course Direction KTS MPH feet Rate Location/Type
Thu 02:01:02 PM 43.6539 -70.4228 281° West 172 198 3,700  Level Boston Center
Thu 02:02:03 PM 43.6658 -70.5056 281° West 206 237 6,300 2,727 Climbing Boston Center
Thu 02:03:03 PM 43.6817 -70.5942 284° West 243 280 9,200 2,281 Climbing Boston Center
Thu 02:04:04 PM 43.7019 -70.6883 287° West 243 280 10,900 1,835 Climbing Boston Center
Thu 02:05:04 PM 43.7206 -70.8056 282° West 295 339 12,900 2,118 Climbing Boston Center
Thu 02:06:03 PM 43.6928 -70.9211 252° West 308 354 15,100 2,205 Climbing Boston Center
Thu 02:07:01 PM 43.6567 -71.0369 247° West 319 367 17,200 1,916 Climbing Boston Center
Thu 02:08:02 PM 43.6372 -71.1433 256° West 332 382 18,900 1,686 Climbing Boston Center
Thu 02:09:02 PM 43.6136 -71.2700 256° West 337 388 20,600 1,850 Climbing Boston Center
Thu 02:10:02 PM 43.5919 -71.3967 257° West 342 394 22,600 1,736 Climbing Boston Center
Thu 02:11:03 PM 43.5681 -71.5231 255° West 342 394 24,100 1,438 Climbing Boston Center
Thu 02:12:03 PM 43.5292 -71.6439 246° West 342 394 25,500 942 Climbing Boston Center
Thu 02:13:04 PM 43.4864 -71.7706 245° Southwest 352 405 26,000 252 Climbing Boston Center
Thu 02:14:02 PM 43.4392 -71.8969 243° Southwest 366 421 26,000  Level Boston Center
Thu 02:15:02 PM 43.3958 -72.0286 246° West 371 427 26,000  Level Boston Center
Thu 02:16:03 PM 43.3503 -72.1544 244° Southwest 377 434 26,000  Level Boston Center
Thu 02:17:04 PM 43.3047 -72.2861 245° Southwest 382 440 26,000  Level Boston Center
Thu 02:18:04 PM 43.2592 -72.4144 244° Southwest 382 440 26,000 -252 Level Boston Center
Thu 02:19:03 PM 43.2131 -72.5425 244° Southwest 382 440 25,500 -500 Descending Boston Center
Thu 02:20:04 PM 43.1672 -72.6706 244° Southwest 382 440 25,000 -504 Descending Boston Center
Thu 02:21:02 PM 43.1147 -72.8069 242° Southwest 377 434 24,500 -508 Descending Boston Center
Thu 02:22:02 PM 43.0683 -72.9375 244° Southwest 377 434 24,000 -250 Descending Boston Center
Thu 02:23:02 PM 43.0239 -73.0650 245° Southwest 382 440 24,000 -545 Level Boston Center
Thu 02:24:03 PM 42.9794 -73.1892 244° Southwest 382 440 22,900 -984 Descending Boston Center
Thu 02:25:04 PM 42.9328 -73.3106 242° Southwest 372 428 22,000 -504 Descending Boston Center
Thu 02:26:02 PM 42.8881 -73.4206 241° Southwest 366 421 21,900  Descending Boston Center
Thu 02:27:02 PM 42.8453 -73.5472 245° Southwest 359 413 22,000 50 Climbing Boston Center
Thu 02:28:02 PM 42.8003 -73.6653 243° Southwest 354 407 22,000  Level Boston Center
Thu 02:29:03 PM 42.7533 -73.7661 238° Southwest 361 415 22,000  Level Boston Center
Thu 02:30:04 PM 42.6508 -73.7867 188° South 333 383 22,000 -458 Level Boston Center
Thu 02:31:01 PM 42.5322 -73.7642 172° South 343 395 21,100 -966 Descending Boston Center
Thu 02:32:02 PM 42.4242 -73.7422 171° South 370 426 20,100 -992 Descending Boston Center
Thu 02:33:02 PM 42.3200 -73.7431 180° South 370 426 19,100 -545 Descending Boston Center
Thu 02:34:03 PM 42.2303 -73.7467 182° South 370 426 19,000 -50 Descending Boston Center
Thu 02:35:03 PM 42.1156 -73.7528 182° South 370 426 19,000  Level Boston Center
Thu 02:36:03 PM 42.0133 -73.7589 183° South 370 426 19,000 -446 Level Boston Center
Thu 02:37:04 PM 41.9069 -73.7678 184° South 375 432 18,100 -1,322 Descending Boston Center
Thu 02:38:01 PM 41.8047 -73.7742 183° South 375 432 16,400 -1,881 Descending Boston Center
Thu 02:39:02 PM 41.7006 -73.7803 183° South 375 432 14,400 -1,672 Descending Boston Center
Thu 02:40:03 PM 41.6067 -73.7867 183° South 358 412 13,000 -1,510 Descending Boston Center
Thu 02:41:29 PM 41.4833 -73.7833 179° South 286 329 10,700 -1,562 Descending New York TRACON
Thu 02:42:29 PM 41.4000 -73.8000 189° South 283 326 9,200 -950 Descending New York TRACON
Thu 02:43:29 PM 41.3333 -73.7833 169° South 275 316 8,800 -600 Descending New York TRACON
Thu 02:44:29 PM 41.2667 -73.7333 151° Southeast 294 338 8,000 -1,200 Descending New York TRACON
Thu 02:45:29 PM 41.2000 -73.6667 143° Southeast 287 330 6,400 -1,650 Descending New York TRACON
Thu 02:46:29 PM 41.1333 -73.6167 151° Southeast 280 322 4,700 -1,200 Descending New York TRACON
Thu 02:47:29 PM 41.0667 -73.6333 191° South 259 298 4,000 -368 Descending New York TRACON
Thu 02:48:23 PM 41.0167 -73.6833 217° Southwest 253 291 4,000  Level New York TRACON
Thu 02:49:23 PM 40.9500 -73.7333 210° Southwest 252 290 4,000 -667 Level New York TRACON
Thu 02:50:29 PM 40.9000 -73.7833 217° Southwest 222 255 2,600 -1,150 Descending New York TRACON
Thu 02:51:23 PM 40.8500 -73.8167 207° Southwest 181 208 1,700 -1,000 Descending New York TRACON
Thu 02:52:23 PM 40.8167 -73.8500 217° Southwest 155 178 700 -1,000 Descending New York TRACON
Thu 02:54:00 PM 40.7772 -73.8726 180° South  Level Estimated
Thu 03:01:00 PM 40.7772 -73.8726 180° South  Level Estimated
Thu 03:02:00 PM 40.7772 -73.8726 180° South  Level Estimated

Login

Don't have an account? Register now (free) for customized features, flight alerts, and more!